createdAt,value
2023-01-28T14:51:00.105Z,100573.50
2023-01-28T14:53:36.503Z,100568.34
2023-01-28T14:56:11.506Z,100566.53
2023-01-28T14:58:41.824Z,100561.31
2023-01-28T15:01:20.534Z,100564.94
2023-01-28T15:03:48.761Z,100562.06
2023-01-28T15:06:17.688Z,100549.66
2023-01-28T15:08:47.127Z,100551.56
2023-01-28T15:11:17.574Z,100549.78
2023-01-28T15:13:47.033Z,100551.56
2023-01-28T15:16:19.356Z,100546.25
2023-01-28T15:18:48.376Z,100545.63
2023-01-28T15:21:20.390Z,100539.59
2023-01-28T15:23:50.839Z,100545.88
2023-01-28T15:26:21.039Z,100549.03
2023-01-28T15:28:49.559Z,100547.97
2023-01-28T15:31:21.114Z,100546.88
2023-01-28T15:33:57.192Z,100547.75
2023-01-28T15:36:26.566Z,100551.47
2023-01-28T15:38:56.146Z,100551.25
2023-01-28T15:41:25.503Z,100549.44
2023-01-28T15:43:54.074Z,100542.19
2023-01-28T15:46:22.189Z,100543.91
2023-01-28T15:48:52.449Z,100537.78
2023-01-28T15:51:21.691Z,100535.22
2023-01-28T15:53:51.491Z,100532.56
2023-01-28T15:56:25.831Z,100541.34
2023-01-28T15:58:54.025Z,100538.63
2023-01-28T16:01:22.289Z,100528.56
2023-01-28T16:04:01.913Z,100528.88
2023-01-28T16:06:35.915Z,100528.38
2023-01-28T16:09:05.177Z,100519.69
2023-01-28T16:11:37.404Z,100521.72
2023-01-28T16:14:05.688Z,100524.81
2023-01-28T16:16:35.450Z,100518.56
2023-01-28T16:19:05.532Z,100518.34
2023-01-28T16:21:35.042Z,100513.34
2023-01-28T16:24:04.540Z,100507.00
2023-01-28T16:26:33.571Z,100508.03
2023-01-28T16:29:13.295Z,100504.69
2023-01-28T16:31:41.432Z,100510.19
2023-01-28T16:34:10.450Z,100509.44
2023-01-28T16:36:38.653Z,100507.13
2023-01-28T16:39:06.812Z,100507.97
2023-01-28T16:41:36.496Z,100506.28
2023-01-28T16:44:06.922Z,100503.03
2023-01-28T16:46:35.224Z,100499.13
2023-01-28T16:49:03.894Z,100484.50
2023-01-28T16:51:32.514Z,100492.56
2023-01-28T16:54:00.770Z,100488.31
2023-01-28T16:56:44.552Z,100487.13
2023-01-28T16:59:16.375Z,100487.13
2023-01-28T17:01:45.206Z,100490.03
2023-01-28T17:04:13.603Z,100487.59
2023-01-28T17:06:43.513Z,100489.50
2023-01-28T17:09:11.887Z,100489.72
2023-01-28T17:11:41.012Z,100478.63
2023-01-28T17:14:09.235Z,100482.94
2023-01-28T17:16:39.092Z,100487.72
2023-01-28T17:19:07.492Z,100488.66
2023-01-28T17:21:35.786Z,100479.78
2023-01-28T17:24:04.259Z,100480.28
2023-01-28T17:26:34.080Z,100478.63
2023-01-28T17:29:02.289Z,100484.75
2023-01-28T17:31:30.516Z,100482.94
2023-01-28T17:34:00.399Z,100475.13
2023-01-28T17:36:28.768Z,100473.19
2023-01-28T17:38:56.783Z,100476.38
2023-01-28T17:41:24.784Z,100474.56
2023-01-28T17:43:53.604Z,100468.44
2023-01-28T17:46:22.897Z,100471.19
2023-01-28T17:48:51.187Z,100473.72
2023-01-28T17:51:20.730Z,100460.50
2023-01-28T17:53:48.978Z,100459.66
2023-01-28T17:56:18.252Z,100462.28
2023-01-28T17:58:49.948Z,100459.53
2023-01-28T18:01:18.330Z,100455.19
2023-01-28T18:03:46.615Z,100458.69
2023-01-28T18:06:14.784Z,100459.41
2023-01-28T18:08:44.293Z,100454.09
2023-01-28T18:11:13.233Z,100459.53
2023-01-28T18:13:41.880Z,100451.56
2023-01-28T18:16:14.823Z,100458.47
2023-01-28T18:18:43.008Z,100448.81
2023-01-28T18:21:19.863Z,100448.19
2023-01-28T18:23:49.794Z,100439.94
2023-01-28T18:26:17.884Z,100448.09
2023-01-28T18:28:45.914Z,100451.69
2023-01-28T18:31:14.048Z,100448.50
2023-01-28T18:33:42.327Z,100444.28
2023-01-28T18:36:11.235Z,100436.31
2023-01-28T18:38:39.284Z,100434.66
2023-01-28T18:41:08.759Z,100434.66
2023-01-28T18:43:37.079Z,100441.53
2023-01-28T18:46:11.145Z,100434.22
2023-01-28T18:48:39.473Z,100439.59
2023-01-28T18:51:12.338Z,100433.25
2023-01-28T18:53:45.696Z,100430.50
2023-01-28T18:56:15.219Z,100425.94
2023-01-28T18:58:43.344Z,100415.47
2023-01-28T19:01:12.411Z,100417.97
2023-01-28T19:03:40.461Z,100416.94
2023-01-28T19:06:09.889Z,100402.72
2023-01-28T19:08:38.412Z,100398.25
2023-01-28T19:11:06.499Z,100410.56
2023-01-28T19:13:35.907Z,100417.44
2023-01-28T19:16:04.338Z,100408.41
2023-01-28T19:18:32.769Z,100407.44
2023-01-28T19:21:02.903Z,100402.28
2023-01-28T19:23:40.968Z,100407.34
2023-01-28T19:26:21.150Z,100398.78
2023-01-28T19:28:51.175Z,100410.31
2023-01-28T19:31:20.836Z,100401.66
2023-01-28T19:33:49.645Z,100395.19
2023-01-28T19:36:17.634Z,100395.63
2023-01-28T19:38:45.923Z,100390.31
2023-01-28T19:41:16.326Z,100402.84
2023-01-28T19:43:44.464Z,100399.97
2023-01-28T19:46:15.757Z,100401.53
2023-01-28T19:48:44.095Z,100402.16
2023-01-28T19:51:12.840Z,100396.63
2023-01-28T19:53:41.700Z,100399.06
2023-01-28T19:56:10.740Z,100392.72
2023-01-28T19:58:39.712Z,100392.81
2023-01-28T20:01:08.601Z,100391.13
2023-01-28T20:03:38.117Z,100383.16
2023-01-28T20:06:06.963Z,100384.13
2023-01-28T20:08:35.007Z,100381.38
2023-01-28T20:11:03.579Z,100378.00
2023-01-28T20:13:32.098Z,100373.75
2023-01-28T20:16:00.420Z,100375.34
2023-01-28T20:18:28.748Z,100377.03
2023-01-28T20:20:58.189Z,100370.91
2023-01-28T20:23:26.322Z,100364.84
2023-01-28T20:25:55.412Z,100362.09
2023-01-28T20:28:24.201Z,100368.97
2023-01-28T20:30:52.894Z,100362.59
2023-01-28T20:33:21.323Z,100361.63
2023-01-28T20:35:49.772Z,100360.16
2023-01-28T20:38:19.132Z,100354.25
2023-01-28T20:40:47.570Z,100356.81
2023-01-28T20:43:15.928Z,100353.28
2023-01-28T20:45:44.119Z,100346.91
2023-01-28T20:48:12.211Z,100339.31
2023-01-28T20:50:40.470Z,100344.41
2023-01-28T20:53:08.629Z,100333.06
2023-01-28T20:55:38.028Z,100333.91
2023-01-28T20:58:06.178Z,100338.13
2023-01-28T21:00:34.244Z,100336.94
2023-01-28T21:03:02.339Z,100341.41
2023-01-28T21:05:30.405Z,100336.84
2023-01-28T21:07:58.479Z,100339.00
2023-01-28T21:10:26.552Z,100335.06
2023-01-28T21:12:56.151Z,100337.09
2023-01-28T21:15:24.236Z,100326.59
2023-01-28T21:17:52.316Z,100328.41
2023-01-28T21:20:20.358Z,100324.69
2023-01-28T21:22:51.367Z,100317.59
2023-01-28T21:25:19.675Z,100313.03
2023-01-28T21:27:47.729Z,100311.94
2023-01-28T21:30:18.367Z,100297.63
2023-01-28T21:32:46.949Z,100296.03
2023-01-28T21:35:15.149Z,100299.03
2023-01-28T21:37:46.081Z,100303.72
2023-01-28T21:40:14.695Z,100306.00
2023-01-28T21:42:43.651Z,100305.91
2023-01-28T21:45:12.261Z,100303.94
2023-01-28T21:47:41.783Z,100302.41
2023-01-28T21:50:10.350Z,100296.22
2023-01-28T21:52:38.422Z,100299.84
2023-01-28T21:55:06.867Z,100293.84
2023-01-28T21:57:34.942Z,100296.34
2023-01-28T22:00:02.069Z,100287.44
2023-01-28T22:02:39.719Z,100286.59
2023-01-28T22:05:09.477Z,100278.78
2023-01-28T22:07:37.543Z,100279.72
2023-01-28T22:10:05.749Z,100282.72
2023-01-28T22:12:33.823Z,100281.03
2023-01-28T22:15:01.946Z,100282.50
2023-01-28T22:17:31.615Z,100272.88
2023-01-28T22:19:59.694Z,100273.34
2023-01-28T22:22:29.109Z,100270.72
2023-01-28T22:24:57.101Z,100268.66
2023-01-28T22:27:27.161Z,100265.31
2023-01-28T22:29:57.559Z,100252.16
2023-01-28T22:32:26.814Z,100263.28
2023-01-28T22:34:54.764Z,100254.97
2023-01-28T22:37:22.825Z,100251.13
2023-01-28T22:39:54.434Z,100243.63
2023-01-28T22:42:24.059Z,100245.94
2023-01-28T22:44:52.218Z,100243.91
2023-01-28T22:47:20.328Z,100242.94
2023-01-28T22:49:48.380Z,100238.94
2023-01-28T22:52:16.410Z,100238.09
2023-01-28T22:54:44.538Z,100227.25
2023-01-28T22:57:13.983Z,100227.63
2023-01-28T22:59:45.908Z,100223.88
2023-01-28T23:02:19.292Z,100223.78
2023-01-28T23:04:47.487Z,100217.50
2023-01-28T23:07:15.566Z,100217.41
2023-01-28T23:09:44.842Z,100208.34
2023-01-28T23:12:14.233Z,100211.59
2023-01-28T23:14:59.857Z,100206.31
2023-01-28T23:17:45.025Z,100202.94
2023-01-28T23:20:30.820Z,100195.72
2023-01-28T23:23:16.420Z,100203.56
2023-01-28T23:25:44.458Z,100197.41
2023-01-28T23:28:14.025Z,100196.31
2023-01-28T23:30:42.237Z,100195.94
2023-01-28T23:33:10.582Z,100182.97
2023-01-28T23:35:38.739Z,100172.97
2023-01-28T23:38:06.901Z,100171.84
2023-01-28T23:40:34.954Z,100170.41
2023-01-28T23:43:04.613Z,100184.25
2023-01-28T23:45:34.188Z,100177.06
2023-01-28T23:48:04.406Z,100178.13
2023-01-28T23:50:32.462Z,100181.84
2023-01-28T23:53:01.440Z,100186.91
2023-01-28T23:55:29.580Z,100186.53
2023-01-28T23:57:57.583Z,100174.13
